Time;durP1;ratioP1;P1;durP2;ratioP2;P2;SDS_P1;SDS_P2;PMS_P1;PMS_P2;Temp;Humidity;BMP_temperature;BMP_pressure;BME280_temperature;BME280_humidity;BME280_pressure;Samples;Min_cycle;Max_cycle;Signal;HPM_P1;HPM_P2
2022/03/19 12:05:31;;;;;;;3.88;1.70;;;15.70;68.30;;;;;;2299910;62;30643;-71
2022/03/19 12:08:12;;;;;;;3.50;1.67;;;15.70;68.70;;;;;;2291259;62;30125;-71
2022/03/19 12:10:59;;;;;;;3.95;1.67;;;15.70;69.40;;;;;;2291223;62;30307;-72
2022/03/19 12:13:28;;;;;;;3.78;1.83;;;15.80;69.40;;;;;;2283335;62;30878;-72
2022/03/19 12:15:55;;;;;;;3.88;1.40;;;15.80;70.80;;;;;;2283520;62;30269;-73
2022/03/19 12:18:34;;;;;;;2.65;1.42;;;15.90;71.30;;;;;;2275614;62;30123;-72
2022/03/19 12:21:03;;;;;;;3.83;1.73;;;15.90;71.50;;;;;;2282734;62;30306;-72
2022/03/19 12:23:39;;;;;;;3.53;1.80;;;16.00;71.60;;;;;;2282682;62;30377;-71
2022/03/19 12:26:05;;;;;;;3.58;1.30;;;16.00;70.80;;;;;;2275472;62;31014;-71
2022/03/19 12:28:31;;;;;;;2.42;1.23;;;16.10;71.60;;;;;;2268842;62;30367;-71
2022/03/19 12:31:08;;;;;;;2.80;1.50;;;16.20;71.60;;;;;;2282833;62;30294;-71
2022/03/19 12:33:34;;;;;;;3.60;1.60;;;16.20;70.50;;;;;;2275567;62;30889;-72
2022/03/19 12:36:19;;;;;;;2.28;1.52;;;16.30;71.40;;;;;;2268638;62;30438;-73
2022/03/19 12:38:45;;;;;;;2.00;1.33;;;16.40;70.00;;;;;;2275771;62;30129;-73
2022/03/19 12:41:28;;;;;;;4.25;1.30;;;16.40;71.00;;;;;;2276114;62;30239;-73
2022/03/19 12:43:55;;;;;;;3.03;1.60;;;16.40;70.60;;;;;;2276118;62;30220;-73
2022/03/19 12:46:25;;;;;;;5.18;1.50;;;16.50;70.70;;;;;;2289428;62;30697;-73
2022/03/19 12:48:52;;;;;;;4.10;1.48;;;16.60;70.60;;;;;;2276900;62;30223;-73
2022/03/19 12:51:25;;;;;;;1.55;1.33;;;16.60;70.40;;;;;;2283014;62;30214;-73
2022/03/19 12:53:51;;;;;;;2.53;1.30;;;16.60;68.40;;;;;;2276529;62;31977;-73
2022/03/19 12:56:21;;;;;;;4.78;1.33;;;16.70;69.80;;;;;;2290967;62;31503;-73
2022/03/19 12:58:52;;;;;;;3.92;1.50;;;16.70;69.40;;;;;;2291012;62;30275;-73
2022/03/19 13:01:22;;;;;;;3.60;1.50;;;16.80;68.70;;;;;;2291184;62;30268;-74
2022/03/19 13:03:59;;;;;;;3.67;1.40;;;16.80;68.70;;;;;;2282191;62;31035;-74
2022/03/19 13:06:36;;;;;;;2.97;1.30;;;16.80;67.70;;;;;;2282036;62;30526;-74
2022/03/19 13:09:04;;;;;;;2.50;1.20;;;16.80;68.10;;;;;;2282376;62;30262;-74
2022/03/19 13:11:51;;;;;;;2.60;1.17;;;16.80;68.90;;;;;;2282362;62;30258;-76
2022/03/19 13:14:19;;;;;;;2.25;1.17;;;16.80;67.40;;;;;;2282612;62;30251;-75
2022/03/19 13:16:57;;;;;;;2.67;1.00;;;16.90;68.80;;;;;;2277685;62;30722;-73
2022/03/19 13:19:23;;;;;;;2.25;1.05;;;16.90;68.60;;;;;;2277279;62;30109;-74
2022/03/19 13:21:50;;;;;;;2.42;1.00;;;16.90;68.60;;;;;;2276315;62;30345;-74
2022/03/19 13:24:23;;;;;;;2.10;0.70;;;16.90;68.60;;;;;;2269655;62;31213;-74
2022/03/19 13:26:49;;;;;;;3.17;1.00;;;16.90;68.30;;;;;;2277406;62;31790;-74
2022/03/19 13:29:25;;;;;;;2.42;1.30;;;16.90;68.40;;;;;;2269735;62;30121;-74
2022/03/19 13:31:56;;;;;;;3.45;1.10;;;17.00;68.20;;;;;;2276633;62;30243;-74
2022/03/19 13:34:28;;;;;;;2.77;1.17;;;17.00;68.30;;;;;;2269168;62;31324;-74
2022/03/19 13:37:02;;;;;;;3.28;1.02;;;17.00;68.20;;;;;;2273425;62;31365;-74
2022/03/19 13:39:30;;;;;;;2.83;0.90;;;17.00;68.20;;;;;;2276818;62;30221;-74
2022/03/19 13:42:09;;;;;;;3.85;1.27;;;17.10;68.10;;;;;;2276991;62;30306;-74
2022/03/19 13:44:39;;;;;;;0.63;0.63;;;17.10;67.20;;;;;;2276674;62;30251;-73
2022/03/19 13:47:17;;;;;;;1.98;0.82;;;17.10;67.90;;;;;;2270030;62;30397;-74
2022/03/19 13:49:47;;;;;;;2.30;0.80;;;17.10;67.80;;;;;;2270381;62;30228;-75
2022/03/19 13:52:39;;;;;;;2.10;1.13;;;17.20;68.10;;;;;;2276554;62;30341;-74
2022/03/19 13:55:08;;;;;;;1.60;0.80;;;17.20;66.70;;;;;;2276980;62;32211;-73
2022/03/19 13:57:35;;;;;;;4.18;1.10;;;17.20;67.60;;;;;;2276410;62;30488;-73
2022/03/19 14:00:08;;;;;;;1.30;0.80;;;17.20;67.50;;;;;;2277066;62;30151;-74
2022/03/19 14:02:35;;;;;;;5.68;1.15;;;17.30;67.50;;;;;;2276146;62;30233;-76
2022/03/19 14:05:05;;;;;;;3.72;0.80;;;17.30;67.60;;;;;;2276296;62;31398;-77
2022/03/19 14:07:33;;;;;;;1.80;1.08;;;17.30;67.30;;;;;;2276477;62;30507;-76
2022/03/19 14:10:00;;;;;;;2.05;0.88;;;17.30;67.40;;;;;;2278761;62;30572;-80
2022/03/19 14:12:37;;;;;;;0.85;0.77;;;17.40;67.40;;;;;;2276788;62;30203;-78
2022/03/19 14:15:03;;;;;;;2.00;0.90;;;17.40;66.80;;;;;;2276576;62;32451;-77
2022/03/19 14:17:43;;;;;;;1.10;0.80;;;17.40;67.10;;;;;;2276043;62;30958;-78
2022/03/19 14:20:10;;;;;;;1.88;0.85;;;17.40;66.50;;;;;;2276756;62;30167;-77
2022/03/19 14:22:36;;;;;;;1.40;0.50;;;17.40;67.00;;;;;;2276944;62;30560;-78
2022/03/19 14:25:02;;;;;;;1.38;0.80;;;17.40;67.00;;;;;;2269239;62;32352;-78
2022/03/19 14:27:28;;;;;;;1.75;1.20;;;17.50;67.00;;;;;;2276445;62;30602;-78
2022/03/19 14:29:54;;;;;;;1.40;0.98;;;17.50;66.90;;;;;;2276926;62;30803;-78
2022/03/19 14:32:20;;;;;;;0.73;0.73;;;17.50;66.90;;;;;;2276695;62;30049;-78
2022/03/19 14:34:46;;;;;;;1.55;1.02;;;17.50;66.90;;;;;;2276809;62;30051;-78
2022/03/19 14:37:12;;;;;;;0.68;0.65;;;17.50;66.80;;;;;;2276794;62;30472;-78
2022/03/19 14:39:37;;;;;;;2.25;0.88;;;17.50;66.70;;;;;;2276655;62;30150;-78
2022/03/19 14:42:04;;;;;;;1.95;1.02;;;17.50;66.70;;;;;;2276831;62;30143;-78
2022/03/19 14:44:30;;;;;;;1.40;0.88;;;17.60;66.70;;;;;;2275894;62;30501;-78
2022/03/19 14:46:55;;;;;;;1.45;0.70;;;17.60;66.60;;;;;;2276766;62;30162;-77
2022/03/19 14:49:21;;;;;;;1.48;0.98;;;17.60;66.60;;;;;;2276792;62;30167;-77
2022/03/19 14:51:47;;;;;;;2.03;1.10;;;17.60;66.50;;;;;;2276670;62;30141;-77
2022/03/19 14:54:13;;;;;;;2.53;0.70;;;17.60;66.40;;;;;;2276849;62;30829;-77
2022/03/19 14:56:39;;;;;;;1.27;0.73;;;17.70;66.50;;;;;;2276741;62;30724;-77
2022/03/19 14:59:05;;;;;;;1.20;1.10;;;17.70;66.40;;;;;;2276976;62;30175;-76
2022/03/19 15:01:31;;;;;;;1.75;1.00;;;17.70;66.40;;;;;;2279427;62;30036;-76
2022/03/19 15:03:57;;;;;;;1.65;0.88;;;17.70;66.30;;;;;;2277462;62;31218;-77
2022/03/19 15:06:25;;;;;;;2.60;0.90;;;17.80;66.30;;;;;;2276439;62;30453;-77
2022/03/19 15:08:55;;;;;;;2.22;0.90;;;17.80;66.00;;;;;;2276686;62;30086;-77
2022/03/19 15:11:23;;;;;;;1.90;1.10;;;17.80;66.00;;;;;;2275882;62;30254;-77
2022/03/19 15:13:50;;;;;;;1.65;0.85;;;17.90;65.80;;;;;;2276421;62;31049;-77
2022/03/19 15:16:16;;;;;;;1.33;1.13;;;17.90;65.70;;;;;;2276666;62;30789;-77
2022/03/19 15:18:42;;;;;;;1.90;0.80;;;17.90;65.90;;;;;;2276806;62;30180;-78
2022/03/19 15:21:07;;;;;;;1.48;0.90;;;17.90;65.80;;;;;;2276508;62;30449;-78
2022/03/19 15:23:34;;;;;;;2.40;1.10;;;18.00;65.90;;;;;;2276533;62;31014;-78
2022/03/19 15:25:59;;;;;;;1.88;0.75;;;18.00;65.80;;;;;;2276560;62;30477;-78
2022/03/19 15:28:26;;;;;;;1.25;0.93;;;18.00;65.90;;;;;;2276338;62;30092;-77
2022/03/19 15:30:53;;;;;;;3.65;1.38;;;18.00;65.50;;;;;;2275482;62;30303;-76
2022/03/19 15:33:18;;;;;;;2.97;1.67;;;18.00;65.00;;;;;;2275661;62;31009;-76
2022/03/19 15:35:44;;;;;;;4.63;2.10;;;17.90;64.90;;;;;;2274809;62;31746;-75
2022/03/19 15:38:12;;;;;;;3.60;1.70;;;18.00;64.90;;;;;;2268313;62;30333;-76
2022/03/19 15:40:37;;;;;;;3.60;1.77;;;18.00;65.10;;;;;;2267295;62;30299;-76
2022/03/19 15:43:04;;;;;;;3.47;1.98;;;17.90;64.40;;;;;;2267664;62;30971;-76
2022/03/19 15:45:30;;;;;;;5.40;2.00;;;17.90;64.30;;;;;;2268262;62;30624;-77
2022/03/19 15:47:56;;;;;;;7.07;1.90;;;17.90;64.10;;;;;;2267938;62;29964;-77
2022/03/19 15:50:22;;;;;;;4.30;2.33;;;17.90;64.00;;;;;;2269818;62;30186;-77
2022/03/19 15:52:50;;;;;;;3.88;1.90;;;17.90;64.00;;;;;;2275709;62;30329;-77
2022/03/19 15:55:16;;;;;;;5.80;2.28;;;17.90;64.20;;;;;;2275921;62;30571;-78
2022/03/19 15:57:42;;;;;;;4.47;1.88;;;17.90;64.20;;;;;;2275667;62;29970;-78
2022/03/19 16:00:08;;;;;;;3.05;1.30;;;17.90;64.50;;;;;;2276084;62;30246;-78
2022/03/19 16:02:34;;;;;;;2.50;1.60;;;17.90;64.10;;;;;;2275477;62;31063;-78
2022/03/19 16:05:00;;;;;;;2.30;1.90;;;17.90;64.20;;;;;;2282764;62;30781;-78
2022/03/19 16:07:26;;;;;;;3.47;1.95;;;17.90;64.30;;;;;;2284528;62;29934;-78
2022/03/19 16:09:53;;;;;;;6.03;2.03;;;17.90;64.30;;;;;;2284369;62;30051;-84
2022/03/19 16:12:21;;;;;;;5.97;2.28;;;17.90;64.20;;;;;;2284484;62;31308;-76
2022/03/19 16:14:51;;;;;;;6.10;1.73;;;17.80;64.00;;;;;;2284430;62;30574;-77
2022/03/19 16:17:20;;;;;;;5.50;1.90;;;17.80;64.00;;;;;;2284389;62;30072;-79
2022/03/19 16:19:46;;;;;;;3.20;1.48;;;17.80;64.00;;;;;;2284604;62;30236;-78
2022/03/19 16:22:12;;;;;;;4.57;2.20;;;17.90;64.00;;;;;;2284383;62;30208;-78
2022/03/19 16:24:37;;;;;;;3.70;1.48;;;18.00;64.10;;;;;;2276701;62;31261;-80
2022/03/19 16:27:04;;;;;;;3.90;1.60;;;18.00;64.10;;;;;;2276918;62;30372;-78
2022/03/19 16:29:30;;;;;;;3.63;1.50;;;18.00;64.20;;;;;;2284473;62;29978;-77
2022/03/19 16:31:55;;;;;;;3.00;1.60;;;17.90;64.20;;;;;;2276741;62;30377;-78
2022/03/19 16:34:21;;;;;;;6.00;1.40;;;17.90;64.40;;;;;;2276943;62;30085;-78
2022/03/19 16:36:52;;;;;;;3.45;1.40;;;17.90;64.40;;;;;;2284378;62;30123;-77
2022/03/19 16:39:18;;;;;;;16.45;2.08;;;17.90;64.40;;;;;;2277028;62;30301;-75
2022/03/19 16:41:44;;;;;;;10.65;2.05;;;17.90;64.50;;;;;;2276837;62;30920;-75
2022/03/19 16:44:10;;;;;;;3.38;1.65;;;18.00;64.40;;;;;;2285684;62;30111;-74
2022/03/19 16:46:36;;;;;;;2.95;1.38;;;18.00;64.40;;;;;;2284359;62;30146;-76
2022/03/19 16:49:02;;;;;;;2.60;1.30;;;18.00;64.50;;;;;;2276953;62;30231;-76
2022/03/19 16:51:28;;;;;;;3.28;1.40;;;17.90;64.40;;;;;;2277471;62;30837;-73
2022/03/19 16:53:57;;;;;;;3.67;1.33;;;17.90;64.50;;;;;;2278086;62;30952;-74
2022/03/19 16:56:22;;;;;;;3.13;1.23;;;17.90;64.50;;;;;;2275192;62;30728;-75
2022/03/19 16:58:48;;;;;;;2.53;1.13;;;17.90;64.60;;;;;;2285065;62;30255;-72
2022/03/19 17:01:14;;;;;;;1.42;0.85;;;17.80;64.70;;;;;;2284795;62;30169;-73
2022/03/19 17:03:40;;;;;;;2.85;1.13;;;17.80;64.70;;;;;;2278005;62;30622;-72
2022/03/19 17:06:06;;;;;;;2.55;1.42;;;17.80;64.70;;;;;;2285180;62;30264;-72
2022/03/19 17:08:33;;;;;;;2.22;1.08;;;17.70;64.80;;;;;;2278126;62;30439;-74
2022/03/19 17:11:01;;;;;;;3.10;1.30;;;17.70;65.00;;;;;;2284995;62;32304;-73
2022/03/19 17:13:29;;;;;;;1.35;0.90;;;17.60;65.00;;;;;;2283966;62;30606;-75
2022/03/19 17:15:55;;;;;;;3.95;1.40;;;17.60;65.10;;;;;;2285493;62;30010;-77
2022/03/19 17:18:21;;;;;;;4.03;1.20;;;17.50;65.20;;;;;;2278040;62;30447;-75
2022/03/19 17:20:46;;;;;;;2.05;1.13;;;17.50;65.30;;;;;;2285008;62;30451;-74
2022/03/19 17:23:12;;;;;;;2.65;1.42;;;17.50;65.30;;;;;;2277939;62;31038;-73
2022/03/19 17:25:42;;;;;;;7.45;1.23;;;17.50;65.30;;;;;;2271168;62;31272;-74
2022/03/19 17:28:08;;;;;;;2.65;1.02;;;17.40;65.40;;;;;;2285074;62;30871;-75
2022/03/19 17:30:34;;;;;;;2.88;1.20;;;17.40;65.40;;;;;;2271000;62;30907;-74
2022/03/19 17:33:00;;;;;;;2.60;1.38;;;17.40;65.50;;;;;;2277552;62;30848;-74
2022/03/19 17:35:26;;;;;;;3.70;1.10;;;17.40;65.60;;;;;;2284988;62;30430;-75
2022/03/19 17:37:52;;;;;;;1.63;1.02;;;17.40;65.60;;;;;;2285454;62;30241;-73
2022/03/19 17:40:23;;;;;;;0.88;0.85;;;17.40;65.70;;;;;;2282064;62;31050;-77
2022/03/19 17:42:49;;;;;;;3.40;1.17;;;17.30;65.80;;;;;;2280517;62;32639;-77
2022/03/19 17:45:17;;;;;;;2.78;1.23;;;17.30;65.80;;;;;;2275557;62;30420;-76
2022/03/19 17:47:44;;;;;;;5.57;1.23;;;17.20;65.70;;;;;;2275384;62;30173;-75
2022/03/19 17:50:11;;;;;;;1.50;0.82;;;17.20;65.20;;;;;;2275296;62;31161;-76
2022/03/19 17:52:37;;;;;;;1.67;1.00;;;17.20;65.50;;;;;;2275581;62;32102;-75
2022/03/19 17:55:06;;;;;;;2.30;1.00;;;17.20;65.70;;;;;;2275427;62;30214;-76
2022/03/19 17:57:32;;;;;;;2.58;1.20;;;17.10;65.70;;;;;;2275719;62;30263;-76
2022/03/19 17:59:58;;;;;;;4.20;1.20;;;17.10;66.00;;;;;;2268345;62;30184;-75
2022/03/19 18:02:24;;;;;;;2.72;0.85;;;17.10;66.00;;;;;;2275430;62;30083;-75
2022/03/19 18:04:50;;;;;;;2.03;0.98;;;17.10;66.00;;;;;;2275515;62;29996;-77
2022/03/19 18:07:16;;;;;;;2.42;1.23;;;17.10;66.20;;;;;;2279943;62;30405;-76
2022/03/19 18:09:42;;;;;;;2.67;1.08;;;17.10;66.20;;;;;;2276306;62;32262;-78
2022/03/19 18:12:08;;;;;;;3.55;1.38;;;17.10;66.10;;;;;;2283875;62;30734;-77
2022/03/19 18:14:36;;;;;;;5.82;1.30;;;17.00;66.20;;;;;;2276470;62;30112;-75
2022/03/19 18:17:02;;;;;;;3.55;1.67;;;17.10;66.40;;;;;;2282044;62;30908;-76
2022/03/19 18:19:27;;;;;;;2.15;1.17;;;17.00;66.40;;;;;;2283735;62;30436;-76
2022/03/19 18:21:53;;;;;;;3.90;1.40;;;17.00;66.40;;;;;;2283761;62;30692;-75
2022/03/19 18:24:19;;;;;;;1.15;1.05;;;17.00;66.50;;;;;;2276147;62;30519;-75
2022/03/19 18:26:45;;;;;;;1.88;1.30;;;17.00;66.50;;;;;;2284369;62;30082;-74
2022/03/19 18:29:22;;;;;;;3.92;1.30;;;17.00;66.50;;;;;;2284516;62;31779;-74
2022/03/19 18:31:48;;;;;;;3.88;1.45;;;17.00;66.70;;;;;;2284021;62;30603;-74
2022/03/19 18:34:14;;;;;;;3.70;1.40;;;17.00;66.70;;;;;;2283330;62;30217;-75
2022/03/19 18:36:41;;;;;;;2.30;1.10;;;17.00;66.80;;;;;;2283397;62;30651;-76
2022/03/19 18:39:07;;;;;;;2.13;1.45;;;17.00;66.80;;;;;;2283689;62;31476;-75
2022/03/19 18:41:33;;;;;;;2.28;1.70;;;17.00;66.90;;;;;;2283664;62;30912;-75
2022/03/19 18:43:59;;;;;;;1.60;1.10;;;17.00;66.90;;;;;;2275900;62;30260;-76
2022/03/19 18:46:24;;;;;;;5.40;2.22;;;17.00;67.00;;;;;;2283637;62;30243;-76
2022/03/19 18:48:50;;;;;;;2.33;1.58;;;17.00;67.20;;;;;;2283616;62;30106;-74
2022/03/19 18:51:16;;;;;;;5.50;2.08;;;17.00;67.30;;;;;;2283899;62;30730;-74
2022/03/19 18:53:43;;;;;;;4.15;1.90;;;17.00;67.50;;;;;;2284885;62;30049;-74
2022/03/19 18:56:09;;;;;;;4.40;2.00;;;17.00;67.60;;;;;;2284883;62;30488;-74
2022/03/19 18:58:35;;;;;;;14.10;3.00;;;17.00;67.80;;;;;;2284623;62;31343;-73
2022/03/19 19:01:01;;;;;;;4.90;2.20;;;17.10;67.70;;;;;;2284871;62;30662;-74
2022/03/19 19:03:27;;;;;;;4.25;2.28;;;17.10;67.70;;;;;;2284782;62;30145;-74
2022/03/19 19:05:53;;;;;;;4.28;2.10;;;17.10;68.00;;;;;;2284479;62;30006;-75
2022/03/19 19:08:19;;;;;;;4.05;1.70;;;17.10;68.10;;;;;;2284588;62;32015;-74
2022/03/19 19:10:44;;;;;;;8.77;2.20;;;17.10;68.20;;;;;;2284679;62;30482;-74
2022/03/19 19:13:10;;;;;;;4.57;2.00;;;17.10;68.10;;;;;;2284193;62;30133;-75
2022/03/19 19:15:38;;;;;;;2.45;1.92;;;17.10;68.30;;;;;;2284789;62;30261;-75
2022/03/19 19:18:09;;;;;;;5.32;2.22;;;17.10;68.40;;;;;;2277137;62;30894;-75
2022/03/19 19:20:38;;;;;;;3.03;1.88;;;17.10;68.50;;;;;;2284581;62;32313;-76
2022/03/19 19:23:13;;;;;;;3.97;2.03;;;17.10;68.20;;;;;;2282561;62;30917;-76
2022/03/19 19:25:39;;;;;;;5.05;1.80;;;17.10;68.30;;;;;;2277606;62;30327;-75
2022/03/19 19:28:05;;;;;;;3.78;1.90;;;17.00;68.70;;;;;;2278716;62;30177;-75
2022/03/19 19:30:34;;;;;;;4.60;2.40;;;17.00;68.60;;;;;;2276380;62;30132;-75
2022/03/19 19:33:00;;;;;;;3.17;1.92;;;17.10;68.70;;;;;;2268871;62;30140;-76
2022/03/19 19:35:26;;;;;;;3.40;1.88;;;17.10;68.60;;;;;;2276530;62;30164;-76
2022/03/19 19:37:52;;;;;;;6.72;2.20;;;17.10;69.60;;;;;;2276149;62;30089;-75
2022/03/19 19:40:18;;;;;;;4.13;1.55;;;17.10;68.90;;;;;;2276131;62;31050;-77
2022/03/19 19:42:44;;;;;;;3.97;1.65;;;17.10;68.70;;;;;;2268881;62;30504;-76
2022/03/19 19:45:13;;;;;;;3.50;1.63;;;17.00;68.40;;;;;;2268965;62;30337;-76
2022/03/19 19:47:39;;;;;;;11.10;2.00;;;17.00;68.70;;;;;;2268889;62;30920;-77
2022/03/19 19:50:06;;;;;;;5.30;1.80;;;17.00;68.80;;;;;;2268841;62;30232;-77
2022/03/19 19:52:32;;;;;;;2.28;1.52;;;17.00;68.70;;;;;;2281722;62;30506;-78
2022/03/19 19:54:59;;;;;;;2.28;1.38;;;17.00;68.90;;;;;;2284224;62;30348;-79
2022/03/19 20:00:11;;;;;;;2.08;1.65;;;17.00;69.10;;;;;;2271627;62;30284;-77
2022/03/19 20:02:36;;;;;;;1.55;1.38;;;17.00;69.00;;;;;;2276740;62;30024;-77
2022/03/19 20:05:03;;;;;;;2.42;1.70;;;17.00;69.20;;;;;;2284308;62;30202;-76
2022/03/19 20:07:39;;;;;;;2.45;1.70;;;17.00;69.20;;;;;;2278334;62;30560;-76
2022/03/19 20:10:15;;;;;;;3.05;1.73;;;17.10;69.40;;;;;;2271253;62;31274;-76
2022/03/19 20:12:43;;;;;;;2.95;1.40;;;17.10;69.50;;;;;;2284644;62;30360;-78
2022/03/19 20:15:09;;;;;;;3.85;1.92;;;17.10;69.40;;;;;;2277015;62;30180;-79
2022/03/19 20:17:37;;;;;;;3.95;1.60;;;17.20;69.40;;;;;;2277060;62;31780;-77
2022/03/19 20:20:04;;;;;;;2.65;1.45;;;17.20;69.00;;;;;;2276915;62;30921;-76
2022/03/19 20:22:30;;;;;;;1.65;1.35;;;17.10;68.80;;;;;;2283951;62;30200;-76
2022/03/19 20:24:56;;;;;;;1.50;1.30;;;17.20;69.00;;;;;;2277124;62;30089;-77
2022/03/19 20:27:22;;;;;;;5.45;1.13;;;17.20;69.00;;;;;;2278096;62;32024;-77
2022/03/19 20:29:49;;;;;;;1.30;1.20;;;17.20;68.90;;;;;;2278062;62;30260;-76
2022/03/19 20:32:16;;;;;;;2.05;1.60;;;17.20;68.90;;;;;;2285399;62;30251;-76
2022/03/19 20:34:51;;;;;;;1.60;1.48;;;17.10;68.70;;;;;;2278259;62;30209;-76
2022/03/19 20:37:17;;;;;;;2.53;1.40;;;17.10;69.00;;;;;;2285341;62;30937;-77
2022/03/19 20:39:43;;;;;;;1.85;1.50;;;17.20;69.10;;;;;;2285532;62;30103;-76
2022/03/19 20:42:12;;;;;;;4.95;1.50;;;17.10;69.00;;;;;;2285557;62;30463;-77
2022/03/19 20:44:38;;;;;;;2.50;1.20;;;17.20;69.00;;;;;;2285432;62;30896;-77
2022/03/19 20:47:04;;;;;;;2.25;1.50;;;17.20;69.00;;;;;;2278128;62;30849;-76
2022/03/19 20:52:15;;;;;;;2.08;1.20;;;17.20;68.60;;;;;;2273324;62;30179;-77
2022/03/19 20:54:42;;;;;;;4.53;1.15;;;17.20;68.80;;;;;;2275620;62;30131;-75
2022/03/19 20:57:11;;;;;;;1.23;1.23;;;17.20;68.80;;;;;;2282895;62;30114;-75
2022/03/19 20:59:37;;;;;;;2.03;1.33;;;17.20;68.70;;;;;;2276646;62;30866;-75
2022/03/19 21:02:03;;;;;;;3.45;1.35;;;17.20;68.70;;;;;;2275898;62;30663;-76
2022/03/19 21:04:29;;;;;;;2.28;1.48;;;17.30;68.50;;;;;;2274347;62;30057;-76
2022/03/19 21:06:55;;;;;;;1.33;1.23;;;17.20;68.30;;;;;;2274106;62;30913;-78
2022/03/19 21:09:21;;;;;;;2.20;1.42;;;17.30;68.30;;;;;;2269994;62;31153;-76
2022/03/19 21:11:47;;;;;;;1.92;1.20;;;17.20;68.20;;;;;;2266844;62;30243;-75
2022/03/19 21:14:17;;;;;;;2.50;1.08;;;17.20;68.40;;;;;;2260466;62;30298;-79
2022/03/19 21:16:50;;;;;;;3.55;1.50;;;17.30;68.50;;;;;;2267664;62;30094;-79
2022/03/19 21:19:19;;;;;;;1.30;1.20;;;17.30;69.30;;;;;;2267413;62;31054;-80
2022/03/19 21:21:46;;;;;;;1.50;1.40;;;17.30;68.50;;;;;;2267594;62;30262;-77
2022/03/19 21:24:12;;;;;;;1.40;1.30;;;17.30;68.30;;;;;;2267421;62;30081;-77
2022/03/19 21:26:38;;;;;;;1.40;1.30;;;17.30;68.10;;;;;;2259963;62;30212;-77
2022/03/19 21:29:05;;;;;;;2.70;1.27;;;17.30;68.00;;;;;;2266840;62;30369;-77
2022/03/19 21:31:34;;;;;;;1.45;1.15;;;17.30;68.10;;;;;;2260281;62;30557;-78
2022/03/19 21:34:00;;;;;;;0.93;0.93;;;17.30;68.30;;;;;;2260204;62;31048;-78
2022/03/19 21:36:26;;;;;;;2.30;1.20;;;17.30;68.30;;;;;;2266797;62;30861;-77
2022/03/19 21:41:37;;;;;;;1.40;1.30;;;17.40;68.30;;;;;;2266871;62;30025;-77
2022/03/19 21:44:08;;;;;;;1.75;1.40;;;17.30;67.80;;;;;;2266837;62;30487;-77
2022/03/19 21:46:34;;;;;;;2.03;1.33;;;17.30;67.70;;;;;;2267258;62;31055;-77
2022/03/19 21:49:03;;;;;;;2.17;1.40;;;17.30;67.80;;;;;;2267360;62;31261;-77
2022/03/19 21:51:29;;;;;;;2.05;1.20;;;17.30;67.50;;;;;;2266972;62;30441;-76
2022/03/19 21:53:55;;;;;;;1.40;1.30;;;17.30;67.70;;;;;;2267516;62;30085;-77
2022/03/19 21:56:21;;;;;;;2.63;1.20;;;17.30;67.90;;;;;;2267718;62;32343;-76
2022/03/19 21:58:47;;;;;;;1.00;1.00;;;17.30;67.90;;;;;;2267420;62;30504;-76
2022/03/19 22:01:12;;;;;;;1.60;1.00;;;17.30;67.90;;;;;;2267124;62;30422;-77
2022/03/19 22:03:40;;;;;;;1.13;1.08;;;17.40;68.00;;;;;;2271030;62;30443;-77
2022/03/19 22:06:06;;;;;;;1.30;1.20;;;17.40;67.90;;;;;;2283757;62;30830;-79
2022/03/19 22:08:32;;;;;;;1.30;1.20;;;17.40;67.70;;;;;;2283678;62;30702;-79
2022/03/19 22:10:58;;;;;;;1.30;1.20;;;17.40;67.50;;;;;;2283479;62;30729;-79
2022/03/19 22:13:24;;;;;;;1.73;1.05;;;17.30;67.40;;;;;;2283362;62;30171;-77
2022/03/19 22:15:50;;;;;;;1.63;1.23;;;17.30;67.50;;;;;;2283117;62;31109;-76
2022/03/19 22:18:16;;;;;;;0.90;0.88;;;17.30;67.80;;;;;;2275821;62;30615;-79
2022/03/19 22:20:47;;;;;;;1.15;1.05;;;17.30;67.80;;;;;;2275949;62;30202;-79
2022/03/19 22:23:12;;;;;;;0.98;0.98;;;17.30;67.80;;;;;;2268897;62;30102;-79
2022/03/19 22:25:40;;;;;;;1.30;1.20;;;17.40;68.00;;;;;;2283409;62;30211;-79
2022/03/19 22:28:07;;;;;;;1.70;1.33;;;17.30;67.70;;;;;;2269530;62;30601;-79
2022/03/19 22:30:33;;;;;;;1.48;1.38;;;17.30;67.50;;;;;;2276075;62;30163;-77
2022/03/19 22:32:59;;;;;;;1.42;1.10;;;17.30;67.50;;;;;;2269509;62;30416;-79
2022/03/19 22:35:25;;;;;;;1.80;1.30;;;17.20;67.30;;;;;;2283273;62;30191;-76
2022/03/19 22:37:52;;;;;;;1.20;1.10;;;17.30;67.40;;;;;;2275427;62;30716;-76
2022/03/19 22:40:18;;;;;;;1.20;1.08;;;17.30;67.70;;;;;;2283690;62;30108;-76
2022/03/19 22:42:45;;;;;;;0.95;0.95;;;17.30;67.60;;;;;;2276165;62;30354;-76
2022/03/19 22:45:13;;;;;;;1.88;1.20;;;17.30;67.70;;;;;;2276508;62;31005;-76
2022/03/19 22:47:39;;;;;;;1.30;1.13;;;17.40;67.70;;;;;;2276464;62;31564;-76
2022/03/19 22:50:06;;;;;;;1.73;1.00;;;17.30;67.50;;;;;;2275937;62;30205;-76
2022/03/19 22:52:32;;;;;;;1.35;1.23;;;17.30;67.30;;;;;;2269575;62;30121;-79
2022/03/19 22:54:57;;;;;;;1.00;1.00;;;17.30;67.30;;;;;;2283559;62;32248;-79
2022/03/19 22:57:24;;;;;;;1.45;1.33;;;17.20;67.20;;;;;;2275673;62;31595;-77
2022/03/19 22:59:51;;;;;;;1.88;1.20;;;17.20;67.30;;;;;;2283551;62;30212;-77
2022/03/19 23:02:17;;;;;;;1.38;1.20;;;17.20;67.40;;;;;;2262464;62;30415;-78
2022/03/19 23:04:44;;;;;;;1.30;1.20;;;17.20;67.60;;;;;;2275655;62;32151;-77
2022/03/19 23:07:10;;;;;;;2.58;1.00;;;17.30;67.60;;;;;;2283223;62;30607;-77
2022/03/19 23:09:39;;;;;;;1.20;1.15;;;17.30;67.60;;;;;;2275807;62;30195;-73
2022/03/19 23:12:07;;;;;;;4.85;2.22;;;17.40;67.50;;;;;;2269283;62;30712;-76
2022/03/19 23:14:34;;;;;;;2.72;1.92;;;17.30;67.10;;;;;;2276117;62;30907;-76
2022/03/19 23:16:59;;;;;;;4.03;2.03;;;17.30;67.20;;;;;;2276539;62;30525;-79
2022/03/19 23:19:26;;;;;;;2.60;2.30;;;17.30;66.90;;;;;;2276948;62;30178;-74
2022/03/19 23:21:53;;;;;;;3.80;2.55;;;17.30;67.10;;;;;;2269283;62;30377;-76
